Time;durP1;ratioP1;P1;durP2;ratioP2;P2;SDS_P1;SDS_P2;PMS_P1;PMS_P2;Temp;Humidity;BMP_temperature;BMP_pressure;BME280_temperature;BME280_humidity;BME280_pressure;Samples;Min_cycle;Max_cycle;Signal;HPM_P1;HPM_P2
2022/12/21 00:01:45;;;;;;;12.85;8.70;;;;;;;;;;5079678;28;20051;-69
2022/12/21 00:04:11;;;;;;;14.65;8.48;;;;;;;;;;5079630;28;20044;-69
2022/12/21 00:06:38;;;;;;;13.75;8.65;;;;;;;;;;5079188;28;20128;-69
2022/12/21 00:09:07;;;;;;;12.18;8.35;;;;;;;;;;5082592;28;20031;-69
2022/12/21 00:11:35;;;;;;;12.15;8.27;;;;;;;;;;5081354;28;20100;-69
2022/12/21 00:14:02;;;;;;;14.23;9.13;;;;;;;;;;5085571;28;20040;-69
2022/12/21 00:16:30;;;;;;;18.08;9.65;;;;;;;;;;5076429;28;20055;-69
2022/12/21 00:18:56;;;;;;;13.70;9.02;;;;;;;;;;5079566;28;20043;-70
2022/12/21 00:21:25;;;;;;;20.30;10.65;;;;;;;;;;5077222;28;20422;-69
2022/12/21 00:23:53;;;;;;;16.25;9.80;;;;;;;;;;5082381;28;20063;-69
2022/12/21 00:26:21;;;;;;;17.38;10.23;;;;;;;;;;5085136;28;20105;-69
2022/12/21 00:28:47;;;;;;;19.35;10.50;;;;;;;;;;5085919;28;20040;-69
2022/12/21 00:31:18;;;;;;;18.25;10.27;;;;;;;;;;5086490;28;20044;-69
2022/12/21 00:33:44;;;;;;;14.48;9.68;;;;;;;;;;5076819;28;20052;-69
2022/12/21 00:36:13;;;;;;;17.02;9.77;;;;;;;;;;5083219;28;20038;-69
2022/12/21 00:38:38;;;;;;;21.83;10.30;;;;;;;;;;5086164;28;20209;-70
2022/12/21 00:41:06;;;;;;;14.57;9.25;;;;;;;;;;5085323;28;20138;-69
2022/12/21 00:43:33;;;;;;;14.80;9.15;;;;;;;;;;5085615;28;20382;-69
2022/12/21 00:45:59;;;;;;;14.23;9.70;;;;;;;;;;5088982;28;20056;-69
2022/12/21 00:48:25;;;;;;;13.85;8.35;;;;;;;;;;5089538;27;20040;-69
2022/12/21 00:50:51;;;;;;;13.63;9.13;;;;;;;;;;5084329;28;20023;-69
2022/12/21 00:53:17;;;;;;;14.15;9.07;;;;;;;;;;5079073;28;20052;-69
2022/12/21 00:55:58;;;;;;;13.80;8.40;;;;;;;;;;5076411;28;20043;-69
2022/12/21 00:58:24;;;;;;;17.08;8.68;;;;;;;;;;5082888;28;20123;-69
2022/12/21 01:00:55;;;;;;;11.98;8.43;;;;;;;;;;5078692;28;20165;-69
2022/12/21 01:03:21;;;;;;;11.02;8.15;;;;;;;;;;5079754;28;20058;-69
2022/12/21 01:05:48;;;;;;;12.10;8.35;;;;;;;;;;5079472;28;20036;-69
2022/12/21 01:08:15;;;;;;;11.73;7.72;;;;;;;;;;5080329;28;22163;-69
2022/12/21 01:10:40;;;;;;;10.50;7.60;;;;;;;;;;5077614;28;20063;-69
2022/12/21 01:13:06;;;;;;;12.55;8.20;;;;;;;;;;5076664;28;20114;-69
2022/12/21 01:15:32;;;;;;;11.05;7.40;;;;;;;;;;5075175;28;20048;-69
2022/12/21 01:17:57;;;;;;;15.07;8.90;;;;;;;;;;5079848;28;20028;-69
2022/12/21 01:20:22;;;;;;;11.85;7.75;;;;;;;;;;5081538;28;20113;-69
2022/12/21 01:22:48;;;;;;;11.43;7.25;;;;;;;;;;5080030;28;20072;-69
2022/12/21 01:25:13;;;;;;;12.98;8.45;;;;;;;;;;5080490;28;20070;-69
2022/12/21 01:27:38;;;;;;;11.10;8.35;;;;;;;;;;5080029;28;20066;-69
2022/12/21 01:30:05;;;;;;;11.75;8.00;;;;;;;;;;5079949;28;20028;-69
2022/12/21 01:32:31;;;;;;;15.05;9.90;;;;;;;;;;5076832;28;20032;-69
2022/12/21 01:34:56;;;;;;;14.38;9.85;;;;;;;;;;5074272;28;20035;-69
2022/12/21 01:37:22;;;;;;;15.65;10.50;;;;;;;;;;5074030;28;20181;-69
2022/12/21 01:39:48;;;;;;;17.30;11.13;;;;;;;;;;5080094;28;20043;-69
2022/12/21 01:42:13;;;;;;;16.17;10.48;;;;;;;;;;5077599;28;20438;-69
2022/12/21 01:44:54;;;;;;;15.68;10.60;;;;;;;;;;5073341;28;20120;-69
2022/12/21 01:47:23;;;;;;;14.07;9.32;;;;;;;;;;5083497;28;20059;-69
2022/12/21 01:49:54;;;;;;;13.75;9.45;;;;;;;;;;5075339;28;20063;-69
2022/12/21 01:52:20;;;;;;;14.55;9.68;;;;;;;;;;5077175;28;20605;-69
2022/12/21 01:54:57;;;;;;;14.82;9.98;;;;;;;;;;5076717;28;20063;-70
2022/12/21 01:57:24;;;;;;;14.75;9.93;;;;;;;;;;5076131;28;20066;-69
2022/12/21 01:59:54;;;;;;;15.38;9.77;;;;;;;;;;5077171;28;20032;-69
2022/12/21 02:02:23;;;;;;;13.88;9.38;;;;;;;;;;5077377;28;21057;-69
2022/12/21 02:04:51;;;;;;;12.27;8.35;;;;;;;;;;5077081;28;20550;-71
2022/12/21 02:07:18;;;;;;;15.40;10.27;;;;;;;;;;5078742;28;20044;-70
2022/12/21 02:09:44;;;;;;;16.02;9.63;;;;;;;;;;5079091;28;20052;-70
2022/12/21 02:12:14;;;;;;;13.68;9.73;;;;;;;;;;5080235;28;20478;-70
2022/12/21 02:14:42;;;;;;;12.60;8.93;;;;;;;;;;5080239;28;20042;-70
2022/12/21 02:17:17;;;;;;;12.73;8.98;;;;;;;;;;5081034;28;20052;-70
2022/12/21 02:20:16;;;;;;;11.75;8.45;;;;;;;;;;5083680;28;20051;-70
2022/12/21 02:23:06;;;;;;;12.45;7.55;;;;;;;;;;5087931;28;20448;-70
2022/12/21 02:26:07;;;;;;;9.25;7.53;;;;;;;;;;5092050;28;20078;-70
2022/12/21 02:29:03;;;;;;;18.15;9.10;;;;;;;;;;5085384;28;20749;-70
2022/12/21 02:31:50;;;;;;;11.18;8.15;;;;;;;;;;5083529;28;20071;-70
2022/12/21 02:34:39;;;;;;;11.90;8.70;;;;;;;;;;5086132;28;20508;-70
2022/12/21 02:37:19;;;;;;;13.75;9.13;;;;;;;;;;5087099;28;20059;-70
2022/12/21 02:39:50;;;;;;;15.48;9.90;;;;;;;;;;5085067;28;20693;-70
2022/12/21 02:45:30;;;;;;;15.15;9.80;;;;;;;;;;5087717;27;20485;-70
2022/12/21 02:48:05;;;;;;;16.05;10.13;;;;;;;;;;5091021;28;20064;-69
2022/12/21 02:50:37;;;;;;;15.65;10.05;;;;;;;;;;5087950;28;20058;-69
2022/12/21 02:53:10;;;;;;;15.43;9.85;;;;;;;;;;5080367;28;20051;-69
2022/12/21 02:55:36;;;;;;;16.75;9.93;;;;;;;;;;5080265;28;20086;-69
2022/12/21 02:58:16;;;;;;;14.52;9.23;;;;;;;;;;5078437;28;20055;-69
2022/12/21 03:00:59;;;;;;;16.05;9.18;;;;;;;;;;5078836;28;20054;-69
2022/12/21 03:03:49;;;;;;;15.02;9.35;;;;;;;;;;5084551;28;20044;-69
2022/12/21 03:06:56;;;;;;;14.55;9.70;;;;;;;;;;5078531;28;20051;-69
2022/12/21 03:09:31;;;;;;;14.50;9.43;;;;;;;;;;5082850;28;20047;-69
2022/12/21 03:12:27;;;;;;;11.32;8.45;;;;;;;;;;5082437;28;20063;-69
2022/12/21 03:15:18;;;;;;;12.13;8.10;;;;;;;;;;5079389;28;20055;-69
2022/12/21 03:17:48;;;;;;;11.35;8.40;;;;;;;;;;5082069;28;20079;-69
2022/12/21 03:20:24;;;;;;;15.20;9.52;;;;;;;;;;5082736;28;20048;-69
2022/12/21 03:23:06;;;;;;;11.73;8.70;;;;;;;;;;5079910;28;20559;-70
2022/12/21 03:25:46;;;;;;;15.00;8.90;;;;;;;;;;5081187;27;20048;-69
2022/12/21 03:28:14;;;;;;;15.23;9.50;;;;;;;;;;5083539;28;20121;-70
2022/12/21 03:30:48;;;;;;;10.52;8.50;;;;;;;;;;5076513;28;20046;-69
2022/12/21 03:33:19;;;;;;;12.35;8.00;;;;;;;;;;5079100;28;20047;-69
2022/12/21 03:35:47;;;;;;;11.60;8.18;;;;;;;;;;5083850;28;20035;-70
2022/12/21 03:38:18;;;;;;;13.93;9.43;;;;;;;;;;5081711;28;20056;-69
2022/12/21 03:40:48;;;;;;;13.05;9.18;;;;;;;;;;5077297;28;20105;-69
2022/12/21 03:43:41;;;;;;;13.23;9.50;;;;;;;;;;5075621;28;20060;-69
2022/12/21 03:46:11;;;;;;;14.50;9.60;;;;;;;;;;5076758;28;20071;-69
2022/12/21 03:49:18;;;;;;;14.02;9.55;;;;;;;;;;5083025;28;20929;-69
2022/12/21 03:51:53;;;;;;;14.68;8.85;;;;;;;;;;5071880;28;21151;-69
2022/12/21 03:54:31;;;;;;;15.13;9.27;;;;;;;;;;5083753;28;20063;-69
2022/12/21 03:56:58;;;;;;;12.63;8.73;;;;;;;;;;5088838;28;20044;-69
2022/12/21 03:59:24;;;;;;;12.40;9.18;;;;;;;;;;5086698;28;20052;-70
2022/12/21 04:02:11;;;;;;;13.27;8.85;;;;;;;;;;5086917;28;20048;-69
2022/12/21 04:04:46;;;;;;;14.88;8.43;;;;;;;;;;5082930;28;20135;-69
2022/12/21 04:07:15;;;;;;;13.98;8.70;;;;;;;;;;5082019;28;20129;-69
2022/12/21 04:09:41;;;;;;;11.88;8.32;;;;;;;;;;5088145;28;20086;-68
2022/12/21 04:14:51;;;;;;;10.20;7.13;;;;;;;;;;5084370;28;20038;-69
2022/12/21 04:17:16;;;;;;;10.10;7.18;;;;;;;;;;5085692;28;20487;-68
2022/12/21 04:20:02;;;;;;;11.77;8.20;;;;;;;;;;5086314;28;20538;-69
2022/12/21 04:28:08;;;;;;;14.10;8.43;;;;;;;;;;5088733;28;20792;-69
2022/12/21 04:30:42;;;;;;;11.93;8.15;;;;;;;;;;5083265;28;20065;-69
2022/12/21 04:33:10;;;;;;;11.63;8.18;;;;;;;;;;5084605;28;20056;-69
2022/12/21 04:35:36;;;;;;;14.02;8.52;;;;;;;;;;5082962;28;20039;-69
2022/12/21 04:38:02;;;;;;;11.57;8.05;;;;;;;;;;5088167;28;20081;-69
2022/12/21 04:40:28;;;;;;;13.20;9.07;;;;;;;;;;5090833;28;20130;-69
2022/12/21 04:42:53;;;;;;;12.25;8.30;;;;;;;;;;5087788;28;20135;-68
2022/12/21 04:45:19;;;;;;;16.30;9.10;;;;;;;;;;5090111;28;20048;-69
2022/12/21 04:47:44;;;;;;;13.60;8.65;;;;;;;;;;5092489;28;20080;-69
2022/12/21 04:50:10;;;;;;;13.82;8.88;;;;;;;;;;5086024;28;20052;-69
2022/12/21 04:52:35;;;;;;;13.68;9.23;;;;;;;;;;5082529;28;20635;-69
2022/12/21 04:55:02;;;;;;;11.38;7.97;;;;;;;;;;5076655;28;20043;-68
2022/12/21 04:57:28;;;;;;;12.25;7.82;;;;;;;;;;5079870;28;20056;-69
2022/12/21 04:59:54;;;;;;;11.68;7.95;;;;;;;;;;5076779;28;20036;-69
2022/12/21 05:02:19;;;;;;;13.63;9.18;;;;;;;;;;5076501;28;20054;-68
2022/12/21 05:04:44;;;;;;;14.25;8.70;;;;;;;;;;5077906;28;20040;-70
2022/12/21 05:07:10;;;;;;;13.68;7.80;;;;;;;;;;5076539;28;20245;-61
2022/12/21 05:09:35;;;;;;;17.92;8.20;;;;;;;;;;5078900;28;20155;-61
2022/12/21 05:12:00;;;;;;;11.85;7.82;;;;;;;;;;5079495;28;20028;-60
2022/12/21 05:14:26;;;;;;;9.43;7.07;;;;;;;;;;5075045;28;20429;-60
2022/12/21 05:16:52;;;;;;;10.00;7.22;;;;;;;;;;5074876;28;20158;-60
2022/12/21 05:19:18;;;;;;;11.30;7.63;;;;;;;;;;5076927;28;20138;-60
2022/12/21 05:21:44;;;;;;;15.95;9.38;;;;;;;;;;5077024;28;20050;-60
2022/12/21 05:24:09;;;;;;;16.55;10.40;;;;;;;;;;5081909;28;20100;-60
2022/12/21 05:26:34;;;;;;;17.58;9.82;;;;;;;;;;5077627;28;20040;-60
2022/12/21 05:29:00;;;;;;;16.65;9.90;;;;;;;;;;5082394;28;20131;-60
2022/12/21 05:31:25;;;;;;;18.70;9.98;;;;;;;;;;5074432;28;20124;-60
2022/12/21 05:33:52;;;;;;;18.10;10.10;;;;;;;;;;5084197;28;20125;-60
2022/12/21 05:36:18;;;;;;;17.33;9.50;;;;;;;;;;5083707;28;20169;-61
2022/12/21 05:38:44;;;;;;;12.13;8.70;;;;;;;;;;5087524;28;20118;-62
2022/12/21 05:41:14;;;;;;;11.05;7.97;;;;;;;;;;5086260;28;20044;-62
2022/12/21 05:43:39;;;;;;;11.90;7.82;;;;;;;;;;5078212;27;20036;-61
2022/12/21 05:46:08;;;;;;;11.70;7.72;;;;;;;;;;5080310;28;20129;-62
2022/12/21 05:48:34;;;;;;;18.35;11.13;;;;;;;;;;5088523;28;20052;-60
2022/12/21 05:51:06;;;;;;;18.77;9.43;;;;;;;;;;5084240;28;20110;-62
2022/12/21 05:53:32;;;;;;;14.82;9.00;;;;;;;;;;5084305;28;20032;-61
2022/12/21 05:55:57;;;;;;;13.05;8.35;;;;;;;;;;5080736;28;20566;-61
2022/12/21 05:58:22;;;;;;;13.50;8.63;;;;;;;;;;5077162;28;20051;-61
2022/12/21 06:00:48;;;;;;;11.48;7.85;;;;;;;;;;5081357;28;20036;-61
2022/12/21 06:03:13;;;;;;;14.77;8.00;;;;;;;;;;5077378;27;20032;-62
2022/12/21 06:05:38;;;;;;;15.45;9.05;;;;;;;;;;5079947;28;20207;-61
2022/12/21 06:08:04;;;;;;;13.65;8.48;;;;;;;;;;5074436;28;20052;-61
2022/12/21 06:10:30;;;;;;;12.00;8.23;;;;;;;;;;5080999;28;20145;-61
2022/12/21 06:12:55;;;;;;;16.35;8.77;;;;;;;;;;5075539;28;20052;-61
2022/12/21 06:15:21;;;;;;;14.73;9.15;;;;;;;;;;5076692;28;20051;-61
2022/12/21 06:17:46;;;;;;;13.88;9.25;;;;;;;;;;5076911;28;20040;-61
2022/12/21 06:20:12;;;;;;;17.02;9.63;;;;;;;;;;5075860;28;20094;-63
2022/12/21 06:22:40;;;;;;;13.90;9.02;;;;;;;;;;5075351;28;20056;-60
2022/12/21 06:25:06;;;;;;;14.05;9.05;;;;;;;;;;5085876;28;20044;-62
2022/12/21 06:27:32;;;;;;;12.82;8.50;;;;;;;;;;5084443;28;20052;-62
2022/12/21 06:29:57;;;;;;;12.52;8.02;;;;;;;;;;5081121;28;20028;-62
2022/12/21 06:32:22;;;;;;;14.68;8.73;;;;;;;;;;5083434;28;20048;-60
2022/12/21 06:34:48;;;;;;;20.05;10.68;;;;;;;;;;5084801;28;20076;-61
2022/12/21 06:37:13;;;;;;;15.98;9.70;;;;;;;;;;5066500;28;20048;-61
2022/12/21 06:39:38;;;;;;;18.83;9.75;;;;;;;;;;5086761;28;20105;-61
2022/12/21 06:42:04;;;;;;;15.88;10.13;;;;;;;;;;5081505;27;20601;-61
2022/12/21 06:44:29;;;;;;;22.95;10.10;;;;;;;;;;5087065;28;20060;-62
2022/12/21 06:46:55;;;;;;;19.23;11.35;;;;;;;;;;5084416;27;20347;-60
2022/12/21 06:49:20;;;;;;;20.75;10.70;;;;;;;;;;5085860;28;20193;-61
2022/12/21 06:51:45;;;;;;;18.70;10.70;;;;;;;;;;5083665;28;20036;-63
2022/12/21 06:54:11;;;;;;;16.98;10.18;;;;;;;;;;5082242;28;20067;-62
2022/12/21 06:56:36;;;;;;;17.13;9.68;;;;;;;;;;5080643;28;20047;-61
2022/12/21 06:59:02;;;;;;;16.27;9.80;;;;;;;;;;5084830;28;20051;-61
2022/12/21 07:01:31;;;;;;;15.93;10.07;;;;;;;;;;5085937;28;20055;-61
2022/12/21 07:03:57;;;;;;;18.58;10.43;;;;;;;;;;5090070;28;20444;-61
2022/12/21 07:06:24;;;;;;;14.27;9.00;;;;;;;;;;5085986;28;20044;-60
2022/12/21 07:08:50;;;;;;;15.73;8.98;;;;;;;;;;5086980;28;20448;-60
2022/12/21 07:11:18;;;;;;;16.27;9.05;;;;;;;;;;5086460;28;20050;-61
2022/12/21 07:13:45;;;;;;;12.02;8.20;;;;;;;;;;5081544;28;20040;-59
2022/12/21 07:16:12;;;;;;;12.15;8.23;;;;;;;;;;5080214;28;20087;-61
2022/12/21 07:18:39;;;;;;;13.77;8.68;;;;;;;;;;5080928;28;20047;-66
2022/12/21 07:21:07;;;;;;;12.95;7.68;;;;;;;;;;5081207;28;20816;-61
2022/12/21 07:23:35;;;;;;;12.98;7.60;;;;;;;;;;5083629;28;20036;-61
2022/12/21 07:26:04;;;;;;;11.85;7.57;;;;;;;;;;5082090;28;20044;-60
2022/12/21 07:28:29;;;;;;;10.43;7.22;;;;;;;;;;5088588;28;20128;-61
2022/12/21 07:31:06;;;;;;;10.80;7.07;;;;;;;;;;5080241;28;20071;-61
2022/12/21 07:33:32;;;;;;;9.15;6.47;;;;;;;;;;5081242;28;20055;-61
2022/12/21 07:36:01;;;;;;;12.05;7.68;;;;;;;;;;5080022;28;20039;-60
2022/12/21 07:38:28;;;;;;;10.43;7.28;;;;;;;;;;5077777;28;20052;-61
2022/12/21 07:40:58;;;;;;;9.93;6.65;;;;;;;;;;5079586;28;20096;-61
2022/12/21 07:43:24;;;;;;;11.20;7.35;;;;;;;;;;5074844;28;20044;-60
2022/12/21 07:45:50;;;;;;;11.40;7.55;;;;;;;;;;5081300;28;20060;-61
2022/12/21 07:48:16;;;;;;;10.48;6.32;;;;;;;;;;5075875;28;20145;-61
2022/12/21 07:50:41;;;;;;;8.07;6.55;;;;;;;;;;5081352;28;20122;-61
2022/12/21 07:53:07;;;;;;;9.68;6.70;;;;;;;;;;5083401;28;20036;-60
2022/12/21 07:55:33;;;;;;;8.00;6.60;;;;;;;;;;5075673;28;20108;-61
2022/12/21 07:57:58;;;;;;;10.25;6.60;;;;;;;;;;5078978;28;20051;-60
2022/12/21 08:00:23;;;;;;;9.70;6.25;;;;;;;;;;5077021;28;20058;-61
2022/12/21 08:02:53;;;;;;;11.32;7.00;;;;;;;;;;5083501;28;20035;-62
2022/12/21 08:05:19;;;;;;;15.95;7.72;;;;;;;;;;5077512;27;20654;-61
2022/12/21 08:07:45;;;;;;;14.60;8.30;;;;;;;;;;5082181;28;20120;-61
2022/12/21 08:10:11;;;;;;;15.90;8.90;;;;;;;;;;5078233;28;20054;-61
2022/12/21 08:12:36;;;;;;;15.10;8.98;;;;;;;;;;5079315;28;20048;-61
2022/12/21 08:15:02;;;;;;;17.60;9.90;;;;;;;;;;5076876;28;20032;-60
2022/12/21 08:17:27;;;;;;;15.13;8.55;;;;;;;;;;5077877;28;20039;-63
2022/12/21 08:19:52;;;;;;;16.13;8.88;;;;;;;;;;5074418;28;20040;-62
2022/12/21 08:22:18;;;;;;;12.63;7.50;;;;;;;;;;5073481;28;20059;-60
2022/12/21 08:24:43;;;;;;;13.73;8.02;;;;;;;;;;5085291;28;20118;-60
2022/12/21 08:27:09;;;;;;;11.60;8.13;;;;;;;;;;5084969;28;20556;-61
2022/12/21 08:29:34;;;;;;;12.32;7.57;;;;;;;;;;5080006;28;20034;-60
2022/12/21 08:32:00;;;;;;;15.63;9.18;;;;;;;;;;5081978;28;20048;-63
2022/12/21 08:34:25;;;;;;;12.02;7.13;;;;;;;;;;5089097;28;20066;-62
2022/12/21 08:36:50;;;;;;;19.67;9.63;;;;;;;;;;5071726;28;20216;-62
2022/12/21 08:39:16;;;;;;;11.73;7.60;;;;;;;;;;5069683;28;20056;-62
2022/12/21 08:41:41;;;;;;;15.32;8.52;;;;;;;;;;5075938;28;20032;-61
2022/12/21 08:44:07;;;;;;;16.70;10.10;;;;;;;;;;5080675;27;20044;-60
2022/12/21 08:46:33;;;;;;;14.65;8.10;;;;;;;;;;5076858;28;20048;-61
2022/12/21 08:48:58;;;;;;;14.13;9.27;;;;;;;;;;5075428;28;20124;-62
2022/12/21 08:51:24;;;;;;;15.70;9.30;;;;;;;;;;5076002;28;20044;-64
2022/12/21 08:53:49;;;;;;;19.92;10.60;;;;;;;;;;5077539;28;20059;-61
2022/12/21 08:56:15;;;;;;;16.20;9.38;;;;;;;;;;5077290;28;20072;-61
2022/12/21 08:58:41;;;;;;;15.18;10.00;;;;;;;;;;5082159;28;20046;-60
2022/12/21 09:01:06;;;;;;;16.90;9.90;;;;;;;;;;5075710;28;20063;-61
2022/12/21 09:03:32;;;;;;;17.25;10.77;;;;;;;;;;5081074;28;20047;-60
2022/12/21 09:05:59;;;;;;;21.10;11.80;;;;;;;;;;5079233;28;20028;-60
2022/12/21 09:08:25;;;;;;;20.10;10.50;;;;;;;;;;5075663;28;20052;-61
2022/12/21 09:11:02;;;;;;;17.52;10.82;;;;;;;;;;5073780;28;20055;-62
2022/12/21 09:13:28;;;;;;;17.98;11.25;;;;;;;;;;5075844;28;20072;-61
2022/12/21 09:15:53;;;;;;;20.15;12.27;;;;;;;;;;5075502;28;20044;-61
2022/12/21 09:18:18;;;;;;;21.92;11.80;;;;;;;;;;5075699;28;20987;-60
2022/12/21 09:20:44;;;;;;;17.98;11.30;;;;;;;;;;5076048;28;20893;-60
2022/12/21 09:23:10;;;;;;;20.42;11.38;;;;;;;;;;5077650;28;20482;-61
2022/12/21 09:25:36;;;;;;;19.17;11.43;;;;;;;;;;5076798;27;20052;-61
2022/12/21 09:28:02;;;;;;;19.55;11.18;;;;;;;;;;5079626;28;20051;-61
2022/12/21 09:30:28;;;;;;;20.58;11.55;;;;;;;;;;5067943;28;20161;-61
2022/12/21 09:32:54;;;;;;;19.65;11.10;;;;;;;;;;5075580;28;20519;-60
2022/12/21 09:35:19;;;;;;;23.60;11.52;;;;;;;;;;5077102;28;20044;-59
2022/12/21 09:37:45;;;;;;;18.42;11.65;;;;;;;;;;5076277;28;20046;-61
2022/12/21 09:40:14;;;;;;;18.67;10.40;;;;;;;;;;5074388;27;20131;-60
2022/12/21 09:42:54;;;;;;;17.42;10.05;;;;;;;;;;5073829;28;20089;-60
2022/12/21 09:45:35;;;;;;;20.13;11.60;;;;;;;;;;5075333;28;20067;-61
2022/12/21 09:48:06;;;;;;;19.30;11.38;;;;;;;;;;5070083;28;20035;-60
2022/12/21 09:50:48;;;;;;;24.42;12.65;;;;;;;;;;5066807;28;20040;-56
2022/12/21 09:53:29;;;;;;;22.63;13.27;;;;;;;;;;5069250;28;20504;-60
2022/12/21 09:55:58;;;;;;;20.70;12.75;;;;;;;;;;5072246;28;20055;-62
2022/12/21 09:58:45;;;;;;;27.02;13.63;;;;;;;;;;5077603;28;20047;-60
2022/12/21 10:01:29;;;;;;;22.10;11.82;;;;;;;;;;5077371;27;20097;-60
2022/12/21 10:04:10;;;;;;;21.13;11.45;;;;;;;;;;5075080;28;20044;-60
2022/12/21 10:06:53;;;;;;;18.73;11.48;;;;;;;;;;5078048;28;20051;-61
2022/12/21 10:09:24;;;;;;;;;;;;;;;;;;5076687;28;20035;-60
2022/12/21 10:12:26;;;;;;;19.13;12.55;;;;;;;;;;5075009;28;19916;-68
2022/12/21 10:15:11;;;;;;;20.30;12.23;;;;;;;;;;5077705;28;20076;-61
2022/12/21 10:17:51;;;;;;;17.75;11.55;;;;;;;;;;5079488;28;20059;-62
2022/12/21 10:20:16;;;;;;;16.20;10.30;;;;;;;;;;5078052;27;20056;-61
2022/12/21 10:22:48;;;;;;;13.32;9.00;;;;;;;;;;5090420;28;20521;-61
2022/12/21 10:25:18;;;;;;;13.55;8.27;;;;;;;;;;5088901;28;20052;-61
2022/12/21 10:28:09;;;;;;;14.73;9.52;;;;;;;;;;5088562;28;20052;-61
2022/12/21 10:30:37;;;;;;;13.20;9.13;;;;;;;;;;5078627;28;20055;-60
2022/12/21 10:33:03;;;;;;;14.10;9.43;;;;;;;;;;5087900;28;20086;-61
2022/12/21 10:35:38;;;;;;;11.60;7.88;;;;;;;;;;5090404;28;20070;-61
2022/12/21 10:38:28;;;;;;;14.15;8.32;;;;;;;;;;5090628;28;20044;-61
2022/12/21 10:40:55;;;;;;;13.15;8.18;;;;;;;;;;5089272;28;20040;-62
2022/12/21 10:43:21;;;;;;;13.82;9.48;;;;;;;;;;5089005;28;20079;-60
2022/12/21 10:45:48;;;;;;;14.10;8.80;;;;;;;;;;5086551;28;20039;-61
2022/12/21 10:48:14;;;;;;;14.40;9.10;;;;;;;;;;5087534;28;20043;-60
2022/12/21 10:50:44;;;;;;;12.88;8.80;;;;;;;;;;5088796;28;20069;-61
2022/12/21 10:53:24;;;;;;;14.27;8.95;;;;;;;;;;5074865;28;20109;-61
2022/12/21 10:55:56;;;;;;;15.30;9.70;;;;;;;;;;5079499;28;20041;-61
2022/12/21 10:58:25;;;;;;;15.45;9.77;;;;;;;;;;5082182;28;20044;-61
2022/12/21 11:00:58;;;;;;;14.85;9.32;;;;;;;;;;5079767;28;20055;-61
2022/12/21 11:03:28;;;;;;;13.02;8.35;;;;;;;;;;5081713;28;20047;-61
2022/12/21 11:05:54;;;;;;;11.68;7.60;;;;;;;;;;5077079;28;20040;-62
2022/12/21 11:08:27;;;;;;;10.18;7.22;;;;;;;;;;5075643;28;20078;-61
2022/12/21 11:10:55;;;;;;;10.07;7.80;;;;;;;;;;5079291;28;20048;-61
2022/12/21 11:13:25;;;;;;;13.35;7.95;;;;;;;;;;5077228;28;20048;-60
2022/12/21 11:16:10;;;;;;;12.05;8.70;;;;;;;;;;5080472;28;20053;-60
2022/12/21 11:18:38;;;;;;;12.95;8.02;;;;;;;;;;5081704;27;21404;-60
2022/12/21 11:21:11;;;;;;;12.65;8.30;;;;;;;;;;5082853;28;20447;-60
2022/12/21 11:23:37;;;;;;;15.13;8.38;;;;;;;;;;5076026;28;20036;-60
2022/12/21 11:26:02;;;;;;;12.55;7.97;;;;;;;;;;5078062;28;20070;-64
2022/12/21 11:28:28;;;;;;;12.50;8.93;;;;;;;;;;5079213;28;20067;-60
2022/12/21 11:31:05;;;;;;;12.32;8.38;;;;;;;;;;5079764;28;20092;-62
2022/12/21 11:33:30;;;;;;;14.27;8.77;;;;;;;;;;5080296;28;21474;-60
2022/12/21 11:36:14;;;;;;;12.52;8.90;;;;;;;;;;5076888;28;20031;-61
2022/12/21 11:38:40;;;;;;;12.25;8.35;;;;;;;;;;5079953;28;20047;-60
2022/12/21 11:41:27;;;;;;;14.90;8.80;;;;;;;;;;5074430;28;20059;-61
2022/12/21 11:43:53;;;;;;;12.90;8.32;;;;;;;;;;5080146;28;20048;-61
2022/12/21 11:46:25;;;;;;;14.23;8.88;;;;;;;;;;5076865;28;20052;-60
2022/12/21 11:49:22;;;;;;;12.93;8.23;;;;;;;;;;5080632;28;20046;-60
2022/12/21 11:52:14;;;;;;;12.43;8.68;;;;;;;;;;5075528;28;20083;-60
2022/12/21 11:54:48;;;;;;;10.27;7.60;;;;;;;;;;5071316;28;20052;-62
2022/12/21 11:57:25;;;;;;;13.40;9.32;;;;;;;;;;5077066;27;20039;-60
2022/12/21 12:00:03;;;;;;;12.30;8.93;;;;;;;;;;5079342;28;20036;-61
2022/12/21 12:02:50;;;;;;;15.57;9.05;;;;;;;;;;5075759;28;20074;-61
2022/12/21 12:05:33;;;;;;;10.27;7.95;;;;;;;;;;5078634;28;20081;-61
2022/12/21 12:08:03;;;;;;;10.35;7.43;;;;;;;;;;5076779;28;20159;-61
2022/12/21 12:10:53;;;;;;;12.35;7.65;;;;;;;;;;5075405;28;20510;-60
2022/12/21 12:13:30;;;;;;;8.77;7.15;;;;;;;;;;5076031;28;20060;-61
2022/12/21 12:15:58;;;;;;;10.25;7.40;;;;;;;;;;5076483;28;20625;-60
2022/12/21 12:18:49;;;;;;;10.20;7.50;;;;;;;;;;5078322;28;20105;-61
2022/12/21 12:21:41;;;;;;;9.48;7.43;;;;;;;;;;5077157;28;20039;-61
2022/12/21 12:24:48;;;;;;;10.65;7.82;;;;;;;;;;5073383;28;20106;-60
2022/12/21 12:27:38;;;;;;;9.85;7.45;;;;;;;;;;5074895;28;20097;-60
2022/12/21 12:30:04;;;;;;;10.55;7.80;;;;;;;;;;5084778;28;20089;-61
2022/12/21 12:32:32;;;;;;;11.98;7.50;;;;;;;;;;5086346;28;20035;-60
2022/12/21 12:35:19;;;;;;;10.23;7.93;;;;;;;;;;5085485;28;20414;-60
2022/12/21 12:38:18;;;;;;;10.65;7.90;;;;;;;;;;5090733;27;20059;-60
2022/12/21 12:41:22;;;;;;;8.82;7.88;;;;;;;;;;5086168;28;20142;-59
2022/12/21 12:44:19;;;;;;;9.77;7.70;;;;;;;;;;5061502;28;20082;-59
2022/12/21 12:47:10;;;;;;;12.23;8.68;;;;;;;;;;5081600;28;20048;-60
2022/12/21 12:49:53;;;;;;;11.80;8.88;;;;;;;;;;5082917;28;20105;-60
2022/12/21 12:52:21;;;;;;;11.75;8.35;;;;;;;;;;5084062;28;20075;-60
2022/12/21 12:54:52;;;;;;;12.75;8.40;;;;;;;;;;5081504;28;20052;-60
2022/12/21 12:57:35;;;;;;;11.07;7.90;;;;;;;;;;5077668;28;20155;-60
2022/12/21 13:00:09;;;;;;;11.57;8.88;;;;;;;;;;5075644;28;20483;-61
2022/12/21 13:03:17;;;;;;;12.07;8.90;;;;;;;;;;5077409;28;20040;-60
2022/12/21 13:05:54;;;;;;;11.48;8.27;;;;;;;;;;5072407;28;20048;-59
2022/12/21 13:09:07;;;;;;;11.93;8.27;;;;;;;;;;5075423;28;20051;-61
2022/12/21 13:11:52;;;;;;;15.18;9.20;;;;;;;;;;5030852;28;20303;-61
2022/12/21 13:14:36;;;;;;;11.75;9.60;;;;;;;;;;5072975;28;20048;-61
2022/12/21 13:17:11;;;;;;;13.32;10.07;;;;;;;;;;5078923;28;20040;-60
2022/12/21 13:19:38;;;;;;;11.25;8.75;;;;;;;;;;5079082;28;20114;-61
2022/12/21 13:22:06;;;;;;;13.15;9.35;;;;;;;;;;5079241;28;20062;-62
2022/12/21 13:24:41;;;;;;;12.07;8.90;;;;;;;;;;5076420;28;20055;-61
2022/12/21 13:27:14;;;;;;;14.32;9.38;;;;;;;;;;5079997;28;20051;-62
2022/12/21 13:29:40;;;;;;;;;;;;;;;;;;5082042;28;20034;-60
2022/12/21 13:32:19;;;;;;;10.73;8.35;;;;;;;;;;5072631;28;20621;-62
2022/12/21 13:35:01;;;;;;;13.25;9.13;;;;;;;;;;5077729;28;20343;-61
2022/12/21 13:37:26;;;;;;;12.80;8.68;;;;;;;;;;5081638;27;20051;-62
2022/12/21 13:40:14;;;;;;;13.13;9.38;;;;;;;;;;5074574;28;20117;-62
2022/12/21 13:43:04;;;;;;;13.52;9.23;;;;;;;;;;5075492;28;20040;-62
2022/12/21 13:45:43;;;;;;;13.57;8.90;;;;;;;;;;5081740;28;20044;-60
2022/12/21 13:48:17;;;;;;;13.98;7.78;;;;;;;;;;5076797;28;20111;-63
2022/12/21 13:50:55;;;;;;;13.43;8.40;;;;;;;;;;5081259;28;20055;-61
2022/12/21 13:53:29;;;;;;;13.15;8.15;;;;;;;;;;5077489;28;20048;-61
2022/12/21 13:56:38;;;;;;;13.40;8.20;;;;;;;;;;5071604;28;20056;-61
2022/12/21 13:59:16;;;;;;;12.82;8.50;;;;;;;;;;5036494;28;20878;-62
2022/12/21 14:02:05;;;;;;;13.90;8.18;;;;;;;;;;5076170;28;20104;-60
2022/12/21 14:04:30;;;;;;;11.38;8.32;;;;;;;;;;5077962;28;20101;-62
2022/12/21 14:07:35;;;;;;;12.57;8.60;;;;;;;;;;5081403;28;20150;-60
2022/12/21 14:10:03;;;;;;;11.93;8.25;;;;;;;;;;5052870;28;20043;-60
2022/12/21 14:12:47;;;;;;;13.32;8.20;;;;;;;;;;5082859;28;20044;-60
2022/12/21 14:15:39;;;;;;;10.27;7.68;;;;;;;;;;5080581;27;20043;-60
2022/12/21 14:18:10;;;;;;;13.20;7.70;;;;;;;;;;5087353;28;20035;-60
2022/12/21 14:20:37;;;;;;;12.95;7.25;;;;;;;;;;5074306;28;20044;-60
2022/12/21 14:23:15;;;;;;;13.13;7.60;;;;;;;;;;5078107;28;20060;-60
2022/12/21 14:25:47;;;;;;;8.40;7.22;;;;;;;;;;5078317;28;20082;-60
2022/12/21 14:28:15;;;;;;;13.27;7.55;;;;;;;;;;5081781;28;20143;-61
2022/12/21 14:31:00;;;;;;;8.88;7.30;;;;;;;;;;5083511;28;20048;-60
2022/12/21 14:33:49;;;;;;;10.32;7.78;;;;;;;;;;5084378;28;20048;-60
2022/12/21 14:36:14;;;;;;;9.75;7.10;;;;;;;;;;5078651;28;20040;-59
2022/12/21 14:38:40;;;;;;;11.23;7.00;;;;;;;;;;5080176;28;20093;-63
2022/12/21 14:41:12;;;;;;;11.48;6.43;;;;;;;;;;5080892;28;20549;-61
2022/12/21 14:44:08;;;;;;;9.88;6.88;;;;;;;;;;5070799;28;20040;-63
2022/12/21 14:46:34;;;;;;;8.82;6.40;;;;;;;;;;5074845;28;20052;-61
2022/12/21 14:49:08;;;;;;;15.77;8.10;;;;;;;;;;5078364;28;20104;-61
2022/12/21 14:51:56;;;;;;;9.77;6.93;;;;;;;;;;5072902;28;20207;-61
2022/12/21 14:54:42;;;;;;;9.43;6.68;;;;;;;;;;5073848;28;20138;-60
2022/12/21 14:57:08;;;;;;;10.45;6.50;;;;;;;;;;5069885;28;20055;-60
2022/12/21 14:59:41;;;;;;;9.85;6.88;;;;;;;;;;5071613;28;21269;-61
2022/12/21 15:02:38;;;;;;;9.73;6.57;;;;;;;;;;5078401;28;20058;-60
2022/12/21 15:05:18;;;;;;;7.68;5.72;;;;;;;;;;5075425;28;20082;-60
2022/12/21 15:07:54;;;;;;;10.88;5.80;;;;;;;;;;5078767;28;20051;-61
2022/12/21 15:10:26;;;;;;;11.63;5.93;;;;;;;;;;5076909;28;20060;-61